sensor_id;sensor_type;location;lat;lon;timestamp;pressure;altitude;pressure_sealevel;temperature;humidity
28000;BME280;15328;50.860;10.562;2024-01-06T00:00:41;95199.06;;;6.02;61.29
28000;BME280;15328;50.860;10.562;2024-01-06T00:05:41;95201.41;;;5.92;61.26
28000;BME280;15328;50.860;10.562;2024-01-06T00:10:41;95195.78;;;5.82;61.65
28000;BME280;15328;50.860;10.562;2024-01-06T00:15:42;95195.47;;;5.72;61.61
28000;BME280;15328;50.860;10.562;2024-01-06T00:20:42;95188.56;;;5.52;61.67
28000;BME280;15328;50.860;10.562;2024-01-06T00:25:42;95197.38;;;5.40;62.07
28000;BME280;15328;50.860;10.562;2024-01-06T00:30:43;95193.81;;;5.27;61.86
28000;BME280;15328;50.860;10.562;2024-01-06T00:35:43;95203.75;;;5.01;62.03
28000;BME280;15328;50.860;10.562;2024-01-06T00:40:44;95204.16;;;4.97;62.47
28000;BME280;15328;50.860;10.562;2024-01-06T00:45:44;95197.13;;;4.85;63.32
28000;BME280;15328;50.860;10.562;2024-01-06T00:50:45;95204.69;;;4.75;63.51
28000;BME280;15328;50.860;10.562;2024-01-06T00:55:45;95200.69;;;4.65;64.00
28000;BME280;15328;50.860;10.562;2024-01-06T01:00:46;95206.78;;;4.66;64.77
28000;BME280;15328;50.860;10.562;2024-01-06T01:05:46;95218.72;;;4.69;64.73
28000;BME280;15328;50.860;10.562;2024-01-06T01:10:47;95218.50;;;4.70;64.94
28000;BME280;15328;50.860;10.562;2024-01-06T01:15:47;95213.50;;;4.55;65.46
28000;BME280;15328;50.860;10.562;2024-01-06T01:20:47;95233.75;;;4.55;65.42
28000;BME280;15328;50.860;10.562;2024-01-06T01:25:48;95229.06;;;4.63;65.45
28000;BME280;15328;50.860;10.562;2024-01-06T01:30:48;95237.16;;;4.69;64.97
28000;BME280;15328;50.860;10.562;2024-01-06T01:35:48;95240.78;;;4.74;65.26
28000;BME280;15328;50.860;10.562;2024-01-06T01:40:49;95235.69;;;4.79;65.36
28000;BME280;15328;50.860;10.562;2024-01-06T01:45:55;95247.59;;;4.88;65.21
28000;BME280;15328;50.860;10.562;2024-01-06T01:50:56;95237.44;;;4.92;64.76
28000;BME280;15328;50.860;10.562;2024-01-06T01:55:56;95245.69;;;5.02;65.06
28000;BME280;15328;50.860;10.562;2024-01-06T02:00:57;95245.81;;;5.14;64.84
28000;BME280;15328;50.860;10.562;2024-01-06T02:05:57;95248.25;;;5.15;64.71
28000;BME280;15328;50.860;10.562;2024-01-06T02:10:58;95246.41;;;5.22;64.56
28000;BME280;15328;50.860;10.562;2024-01-06T02:15:58;95249.41;;;5.26;64.52
28000;BME280;15328;50.860;10.562;2024-01-06T02:21:01;95254.63;;;5.33;64.46
28000;BME280;15328;50.860;10.562;2024-01-06T02:26:02;95253.72;;;5.45;64.69
28000;BME280;15328;50.860;10.562;2024-01-06T02:31:03;95251.88;;;5.46;64.57
28000;BME280;15328;50.860;10.562;2024-01-06T02:36:03;95253.41;;;5.35;64.60
28000;BME280;15328;50.860;10.562;2024-01-06T02:41:04;95266.38;;;5.37;65.13
28000;BME280;15328;50.860;10.562;2024-01-06T02:46:06;95268.41;;;5.35;64.40
28000;BME280;15328;50.860;10.562;2024-01-06T02:51:11;95275.84;;;5.44;64.50
28000;BME280;15328;50.860;10.562;2024-01-06T02:56:12;95273.00;;;5.46;64.36
28000;BME280;15328;50.860;10.562;2024-01-06T03:01:15;95275.97;;;5.56;63.97
28000;BME280;15328;50.860;10.562;2024-01-06T03:06:15;95280.56;;;5.67;63.84
28000;BME280;15328;50.860;10.562;2024-01-06T03:11:16;95285.97;;;5.79;63.81
28000;BME280;15328;50.860;10.562;2024-01-06T03:16:16;95291.41;;;5.84;63.50
28000;BME280;15328;50.860;10.562;2024-01-06T03:21:20;95289.75;;;5.89;63.95
28000;BME280;15328;50.860;10.562;2024-01-06T03:26:21;95290.06;;;6.00;63.50
28000;BME280;15328;50.860;10.562;2024-01-06T03:31:21;95293.41;;;6.13;62.71
28000;BME280;15328;50.860;10.562;2024-01-06T03:36:22;95291.84;;;6.06;62.83
28000;BME280;15328;50.860;10.562;2024-01-06T03:41:22;95293.34;;;5.95;62.86
28000;BME280;15328;50.860;10.562;2024-01-06T03:46:23;95288.44;;;5.99;63.38
28000;BME280;15328;50.860;10.562;2024-01-06T03:51:23;95296.34;;;5.99;62.88
28000;BME280;15328;50.860;10.562;2024-01-06T03:56:24;95304.03;;;6.07;63.02
28000;BME280;15328;50.860;10.562;2024-01-06T04:01:24;95301.81;;;6.04;63.11
28000;BME280;15328;50.860;10.562;2024-01-06T04:06:24;95299.59;;;6.01;62.68
28000;BME280;15328;50.860;10.562;2024-01-06T04:11:25;95309.03;;;5.90;62.98
28000;BME280;15328;50.860;10.562;2024-01-06T04:16:26;95310.25;;;5.87;62.69
28000;BME280;15328;50.860;10.562;2024-01-06T04:21:27;95310.91;;;5.83;63.02
28000;BME280;15328;50.860;10.562;2024-01-06T04:26:28;95317.41;;;5.80;63.44
28000;BME280;15328;50.860;10.562;2024-01-06T04:31:28;95316.22;;;5.76;63.45
28000;BME280;15328;50.860;10.562;2024-01-06T04:36:29;95305.84;;;5.81;63.35
28000;BME280;15328;50.860;10.562;2024-01-06T04:41:29;95299.16;;;5.79;63.22
28000;BME280;15328;50.860;10.562;2024-01-06T04:46:29;95301.19;;;5.77;62.96
28000;BME280;15328;50.860;10.562;2024-01-06T04:51:30;95309.13;;;5.77;62.61
28000;BME280;15328;50.860;10.562;2024-01-06T04:56:31;95306.25;;;5.78;62.89
28000;BME280;15328;50.860;10.562;2024-01-06T05:01:31;95316.59;;;5.80;63.16
28000;BME280;15328;50.860;10.562;2024-01-06T05:06:32;95316.25;;;5.70;63.08
28000;BME280;15328;50.860;10.562;2024-01-06T05:11:32;95309.34;;;5.75;63.16
28000;BME280;15328;50.860;10.562;2024-01-06T05:16:32;95308.63;;;5.86;62.99
28000;BME280;15328;50.860;10.562;2024-01-06T05:21:33;95310.09;;;5.82;62.75
28000;BME280;15328;50.860;10.562;2024-01-06T05:26:34;95306.28;;;5.72;62.64
28000;BME280;15328;50.860;10.562;2024-01-06T05:31:34;95311.69;;;5.58;62.85
28000;BME280;15328;50.860;10.562;2024-01-06T05:36:35;95314.53;;;5.57;63.27
28000;BME280;15328;50.860;10.562;2024-01-06T05:41:39;95316.19;;;5.51;63.31
28000;BME280;15328;50.860;10.562;2024-01-06T05:46:40;95316.19;;;5.51;63.34
28000;BME280;15328;50.860;10.562;2024-01-06T05:51:46;95305.06;;;5.49;63.57
28000;BME280;15328;50.860;10.562;2024-01-06T05:56:46;95316.81;;;5.47;63.70
28000;BME280;15328;50.860;10.562;2024-01-06T06:01:47;95324.44;;;5.62;63.35
28000;BME280;15328;50.860;10.562;2024-01-06T06:06:47;95338.97;;;5.71;62.89
28000;BME280;15328;50.860;10.562;2024-01-06T06:11:47;95349.88;;;5.81;62.55
28000;BME280;15328;50.860;10.562;2024-01-06T06:16:48;95358.38;;;5.89;62.37
28000;BME280;15328;50.860;10.562;2024-01-06T06:21:49;95359.34;;;5.95;61.81
28000;BME280;15328;50.860;10.562;2024-01-06T06:26:49;95366.63;;;6.00;61.86
28000;BME280;15328;50.860;10.562;2024-01-06T06:31:49;95354.19;;;6.07;61.93
28000;BME280;15328;50.860;10.562;2024-01-06T06:36:50;95373.47;;;6.07;61.71
28000;BME280;15328;50.860;10.562;2024-01-06T06:41:50;95369.97;;;6.13;61.56
28000;BME280;15328;50.860;10.562;2024-01-06T06:46:50;95389.75;;;6.04;61.46
28000;BME280;15328;50.860;10.562;2024-01-06T06:51:51;95398.50;;;6.05;61.85
28000;BME280;15328;50.860;10.562;2024-01-06T06:56:51;95411.69;;;6.05;61.56
28000;BME280;15328;50.860;10.562;2024-01-06T07:01:51;95419.41;;;6.00;61.43
28000;BME280;15328;50.860;10.562;2024-01-06T07:06:52;95423.66;;;6.01;61.30
28000;BME280;15328;50.860;10.562;2024-01-06T07:11:52;95440.53;;;6.00;61.29
28000;BME280;15328;50.860;10.562;2024-01-06T07:16:52;95444.41;;;5.97;61.35
28000;BME280;15328;50.860;10.562;2024-01-06T07:21:53;95459.03;;;6.00;61.16
28000;BME280;15328;50.860;10.562;2024-01-06T07:26:55;95474.69;;;5.95;61.61
28000;BME280;15328;50.860;10.562;2024-01-06T07:31:55;95473.28;;;5.92;61.55
28000;BME280;15328;50.860;10.562;2024-01-06T07:36:56;95476.53;;;5.94;61.43
28000;BME280;15328;50.860;10.562;2024-01-06T07:41:57;95483.59;;;6.00;61.56
28000;BME280;15328;50.860;10.562;2024-01-06T07:46:58;95483.56;;;6.07;61.76
28000;BME280;15328;50.860;10.562;2024-01-06T07:51:58;95489.44;;;6.09;62.17
28000;BME280;15328;50.860;10.562;2024-01-06T07:56:58;95494.91;;;6.14;61.65
28000;BME280;15328;50.860;10.562;2024-01-06T08:01:59;95503.03;;;6.12;61.90
28000;BME280;15328;50.860;10.562;2024-01-06T08:06:59;95509.28;;;6.18;61.61
28000;BME280;15328;50.860;10.562;2024-01-06T08:12:01;95514.94;;;6.22;61.88
28000;BME280;15328;50.860;10.562;2024-01-06T08:17:02;95516.94;;;6.26;62.30
28000;BME280;15328;50.860;10.562;2024-01-06T08:22:03;95515.72;;;6.29;62.30
28000;BME280;15328;50.860;10.562;2024-01-06T08:27:04;95516.06;;;6.39;62.66
28000;BME280;15328;50.860;10.562;2024-01-06T08:32:05;95508.84;;;6.53;62.88
28000;BME280;15328;50.860;10.562;2024-01-06T08:37:05;95520.19;;;6.60;63.05
28000;BME280;15328;50.860;10.562;2024-01-06T08:42:06;95529.03;;;6.72;62.95
28000;BME280;15328;50.860;10.562;2024-01-06T08:47:06;95531.16;;;6.88;62.89
28000;BME280;15328;50.860;10.562;2024-01-06T08:52:06;95539.19;;;7.00;62.59
28000;BME280;15328;50.860;10.562;2024-01-06T08:57:07;95550.25;;;7.15;62.05
28000;BME280;15328;50.860;10.562;2024-01-06T09:02:08;95573.34;;;7.26;61.68
28000;BME280;15328;50.860;10.562;2024-01-06T09:07:08;95582.59;;;7.35;61.37
28000;BME280;15328;50.860;10.562;2024-01-06T09:12:10;95586.44;;;7.39;61.45
28000;BME280;15328;50.860;10.562;2024-01-06T09:17:11;95591.91;;;7.44;61.54
28000;BME280;15328;50.860;10.562;2024-01-06T09:22:12;95594.16;;;7.41;60.82
28000;BME280;15328;50.860;10.562;2024-01-06T09:27:13;95597.34;;;7.50;60.89
28000;BME280;15328;50.860;10.562;2024-01-06T09:32:15;95609.97;;;7.48;60.47
28000;BME280;15328;50.860;10.562;2024-01-06T09:37:15;95614.03;;;7.50;60.29
28000;BME280;15328;50.860;10.562;2024-01-06T09:42:15;95613.75;;;7.33;60.46
28000;BME280;15328;50.860;10.562;2024-01-06T09:47:18;95621.00;;;7.44;60.70
28000;BME280;15328;50.860;10.562;2024-01-06T09:52:21;95623.88;;;7.61;60.32
28000;BME280;15328;50.860;10.562;2024-01-06T09:57:23;95626.63;;;7.73;60.40
28000;BME280;15328;50.860;10.562;2024-01-06T10:02:23;95633.47;;;7.81;59.82
28000;BME280;15328;50.860;10.562;2024-01-06T10:07:28;95630.75;;;7.87;59.65
28000;BME280;15328;50.860;10.562;2024-01-06T10:12:28;95632.97;;;7.90;59.09
28000;BME280;15328;50.860;10.562;2024-01-06T10:17:30;95639.53;;;8.06;59.11
28000;BME280;15328;50.860;10.562;2024-01-06T10:22:30;95636.34;;;8.16;58.61
28000;BME280;15328;50.860;10.562;2024-01-06T10:27:36;95629.13;;;8.41;58.65
28000;BME280;15328;50.860;10.562;2024-01-06T10:32:39;95638.03;;;8.47;57.61
28000;BME280;15328;50.860;10.562;2024-01-06T10:37:41;95638.19;;;8.52;57.51
28000;BME280;15328;50.860;10.562;2024-01-06T10:42:44;95635.16;;;8.48;57.29
28000;BME280;15328;50.860;10.562;2024-01-06T10:47:46;95624.66;;;8.42;57.37
28000;BME280;15328;50.860;10.562;2024-01-06T10:52:48;95623.63;;;8.43;57.93
28000;BME280;15328;50.860;10.562;2024-01-06T10:57:48;95621.31;;;8.46;58.17
28000;BME280;15328;50.860;10.562;2024-01-06T11:02:55;95628.00;;;8.49;58.13
28000;BME280;15328;50.860;10.562;2024-01-06T11:07:56;95623.38;;;8.62;57.85
28000;BME280;15328;50.860;10.562;2024-01-06T11:13:24;95622.09;;;8.65;57.33
28000;BME280;15328;50.860;10.562;2024-01-06T11:18:35;95622.81;;;8.72;57.02
28000;BME280;15328;50.860;10.562;2024-01-06T11:23:37;95628.69;;;8.74;57.10
28000;BME280;15328;50.860;10.562;2024-01-06T11:28:47;95626.78;;;8.81;56.86
28000;BME280;15328;50.860;10.562;2024-01-06T11:33:51;95631.22;;;8.69;56.54
28000;BME280;15328;50.860;10.562;2024-01-06T11:38:51;95628.53;;;8.57;56.74
28000;BME280;15328;50.860;10.562;2024-01-06T11:43:52;95628.41;;;8.52;56.87
28000;BME280;15328;50.860;10.562;2024-01-06T11:48:52;95623.09;;;8.52;56.66
28000;BME280;15328;50.860;10.562;2024-01-06T11:53:53;95639.59;;;8.36;56.92
28000;BME280;15328;50.860;10.562;2024-01-06T11:58:54;95629.97;;;8.23;57.08
28000;BME280;15328;50.860;10.562;2024-01-06T12:03:55;95622.06;;;8.17;57.05
28000;BME280;15328;50.860;10.562;2024-01-06T12:09:06;95622.16;;;8.10;57.75
28000;BME280;15328;50.860;10.562;2024-01-06T12:14:07;95624.22;;;8.08;57.98
28000;BME280;15328;50.860;10.562;2024-01-06T12:19:07;95621.94;;;8.12;57.87
28000;BME280;15328;50.860;10.562;2024-01-06T12:24:18;95629.34;;;8.21;58.28
28000;BME280;15328;50.860;10.562;2024-01-06T12:29:22;95632.47;;;8.36;57.93
28000;BME280;15328;50.860;10.562;2024-01-06T12:34:22;95632.06;;;8.33;57.72
28000;BME280;15328;50.860;10.562;2024-01-06T12:39:23;95633.28;;;8.37;57.48
28000;BME280;15328;50.860;10.562;2024-01-06T12:44:27;95638.72;;;8.42;57.55
28000;BME280;15328;50.860;10.562;2024-01-06T12:49:28;95636.06;;;8.42;58.04
28000;BME280;15328;50.860;10.562;2024-01-06T12:54:29;95634.88;;;8.38;57.93
28000;BME280;15328;50.860;10.562;2024-01-06T12:59:29;95632.31;;;8.50;57.52
28000;BME280;15328;50.860;10.562;2024-01-06T13:04:30;95635.44;;;8.58;57.90
28000;BME280;15328;50.860;10.562;2024-01-06T13:09:31;95642.50;;;8.64;57.50
28000;BME280;15328;50.860;10.562;2024-01-06T13:14:32;95649.41;;;8.65;57.73
28000;BME280;15328;50.860;10.562;2024-01-06T13:19:32;95654.50;;;8.67;57.77
28000;BME280;15328;50.860;10.562;2024-01-06T13:24:34;95652.66;;;8.67;57.25
28000;BME280;15328;50.860;10.562;2024-01-06T13:29:34;95662.63;;;8.54;58.30
28000;BME280;15328;50.860;10.562;2024-01-06T13:34:35;95660.22;;;8.52;58.07
28000;BME280;15328;50.860;10.562;2024-01-06T13:39:36;95665.88;;;8.56;58.01
28000;BME280;15328;50.860;10.562;2024-01-06T13:44:36;95675.81;;;8.60;57.71
28000;BME280;15328;50.860;10.562;2024-01-06T13:49:37;95675.94;;;8.65;57.45
28000;BME280;15328;50.860;10.562;2024-01-06T13:54:37;95680.78;;;8.68;57.41
28000;BME280;15328;50.860;10.562;2024-01-06T13:59:38;95692.88;;;8.64;57.57
28000;BME280;15328;50.860;10.562;2024-01-06T14:04:42;95698.28;;;8.58;57.40
28000;BME280;15328;50.860;10.562;2024-01-06T14:09:43;95694.94;;;8.44;57.78
28000;BME280;15328;50.860;10.562;2024-01-06T14:14:43;95701.88;;;8.45;57.85
28000;BME280;15328;50.860;10.562;2024-01-06T14:19:44;95700.94;;;8.40;57.86
28000;BME280;15328;50.860;10.562;2024-01-06T14:24:44;95701.59;;;8.35;58.20
28000;BME280;15328;50.860;10.562;2024-01-06T14:29:44;95692.84;;;8.34;57.76
28000;BME280;15328;50.860;10.562;2024-01-06T14:34:45;95701.81;;;8.33;58.03
28000;BME280;15328;50.860;10.562;2024-01-06T14:39:45;95702.09;;;8.25;58.54
28000;BME280;15328;50.860;10.562;2024-01-06T14:44:46;95710.75;;;8.14;59.18
28000;BME280;15328;50.860;10.562;2024-01-06T14:49:46;95718.19;;;8.05;59.56
28000;BME280;15328;50.860;10.562;2024-01-06T14:54:46;95726.13;;;8.05;59.65
28000;BME280;15328;50.860;10.562;2024-01-06T14:59:49;95736.13;;;8.03;59.93
28000;BME280;15328;50.860;10.562;2024-01-06T15:04:49;95736.34;;;8.02;59.88
28000;BME280;15328;50.860;10.562;2024-01-06T15:09:49;95742.53;;;7.96;60.24
28000;BME280;15328;50.860;10.562;2024-01-06T15:14:50;95742.91;;;7.99;59.94
28000;BME280;15328;50.860;10.562;2024-01-06T15:19:50;95751.31;;;7.90;60.47
28000;BME280;15328;50.860;10.562;2024-01-06T15:24:50;95756.97;;;7.93;60.46
28000;BME280;15328;50.860;10.562;2024-01-06T15:29:51;95761.69;;;7.91;60.87
28000;BME280;15328;50.860;10.562;2024-01-06T15:34:51;95759.84;;;7.92;60.87
28000;BME280;15328;50.860;10.562;2024-01-06T15:39:52;95758.81;;;7.93;60.45
28000;BME280;15328;50.860;10.562;2024-01-06T15:44:52;95771.03;;;7.94;60.87
28000;BME280;15328;50.860;10.562;2024-01-06T15:49:52;95781.63;;;7.94;60.84
28000;BME280;15328;50.860;10.562;2024-01-06T15:54:53;95789.19;;;7.90;60.76
28000;BME280;15328;50.860;10.562;2024-01-06T15:59:54;95791.69;;;7.85;61.26
28000;BME280;15328;50.860;10.562;2024-01-06T16:04:54;95793.97;;;7.82;61.24
28000;BME280;15328;50.860;10.562;2024-01-06T16:09:54;95796.81;;;7.80;61.35
28000;BME280;15328;50.860;10.562;2024-01-06T16:14:55;95799.69;;;7.79;61.28
28000;BME280;15328;50.860;10.562;2024-01-06T16:19:56;95794.84;;;7.75;61.45
28000;BME280;15328;50.860;10.562;2024-01-06T16:24:56;95800.94;;;7.76;61.29
28000;BME280;15328;50.860;10.562;2024-01-06T16:29:57;95802.34;;;7.79;61.23
28000;BME280;15328;50.860;10.562;2024-01-06T16:34:58;95810.50;;;7.77;61.44
28000;BME280;15328;50.860;10.562;2024-01-06T16:39:59;95806.22;;;7.76;61.54
28000;BME280;15328;50.860;10.562;2024-01-06T16:44:59;95810.28;;;7.79;61.50
28000;BME280;15328;50.860;10.562;2024-01-06T16:49:59;95819.84;;;7.80;61.52
28000;BME280;15328;50.860;10.562;2024-01-06T16:55:00;95825.38;;;7.78;61.59
28000;BME280;15328;50.860;10.562;2024-01-06T17:00:01;95816.06;;;7.69;61.85
28000;BME280;15328;50.860;10.562;2024-01-06T17:05:03;95818.53;;;7.64;62.28
28000;BME280;15328;50.860;10.562;2024-01-06T17:10:03;95823.38;;;7.67;62.10
28000;BME280;15328;50.860;10.562;2024-01-06T17:15:04;95829.09;;;7.70;61.79
28000;BME280;15328;50.860;10.562;2024-01-06T17:20:05;95834.16;;;7.72;61.82
28000;BME280;15328;50.860;10.562;2024-01-06T17:25:06;95836.59;;;7.73;61.62
28000;BME280;15328;50.860;10.562;2024-01-06T17:30:10;95844.72;;;7.79;61.83
28000;BME280;15328;50.860;10.562;2024-01-06T17:35:10;95848.75;;;7.81;61.76
28000;BME280;15328;50.860;10.562;2024-01-06T17:40:11;95860.59;;;7.79;62.09
28000;BME280;15328;50.860;10.562;2024-01-06T17:45:12;95858.00;;;7.72;61.96
28000;BME280;15328;50.860;10.562;2024-01-06T17:50:13;95859.69;;;7.60;62.21
28000;BME280;15328;50.860;10.562;2024-01-06T17:55:13;95873.59;;;7.49;62.23
28000;BME280;15328;50.860;10.562;2024-01-06T18:00:16;95877.72;;;7.38;62.05
28000;BME280;15328;50.860;10.562;2024-01-06T18:05:16;95880.22;;;7.26;62.33
28000;BME280;15328;50.860;10.562;2024-01-06T18:10:16;95877.16;;;7.29;62.18
28000;BME280;15328;50.860;10.562;2024-01-06T18:15:17;95875.31;;;7.30;62.42
28000;BME280;15328;50.860;10.562;2024-01-06T18:20:17;95883.84;;;7.32;62.55
28000;BME280;15328;50.860;10.562;2024-01-06T18:25:21;95888.75;;;7.28;62.36
28000;BME280;15328;50.860;10.562;2024-01-06T18:30:21;95904.03;;;7.26;62.55
28000;BME280;15328;50.860;10.562;2024-01-06T18:35:22;95905.66;;;7.27;62.85
28000;BME280;15328;50.860;10.562;2024-01-06T18:40:22;95906.88;;;7.25;62.56
28000;BME280;15328;50.860;10.562;2024-01-06T18:45:22;95908.34;;;7.21;62.44
28000;BME280;15328;50.860;10.562;2024-01-06T18:50:23;95910.19;;;7.13;63.04
28000;BME280;15328;50.860;10.562;2024-01-06T18:55:23;95912.03;;;7.13;63.16
28000;BME280;15328;50.860;10.562;2024-01-06T19:00:24;95918.16;;;7.00;63.07
28000;BME280;15328;50.860;10.562;2024-01-06T19:05:24;95920.03;;;6.87;63.27
28000;BME280;15328;50.860;10.562;2024-01-06T19:10:24;95928.75;;;6.80;63.25
28000;BME280;15328;50.860;10.562;2024-01-06T19:15:25;95939.38;;;6.61;63.70
28000;BME280;15328;50.860;10.562;2024-01-06T19:20:25;95940.19;;;6.48;64.12
28000;BME280;15328;50.860;10.562;2024-01-06T19:25:26;95946.28;;;6.35;64.59
28000;BME280;15328;50.860;10.562;2024-01-06T19:30:26;95948.09;;;6.28;65.14
28000;BME280;15328;50.860;10.562;2024-01-06T19:35:26;95952.81;;;6.33;64.83
28000;BME280;15328;50.860;10.562;2024-01-06T19:40:27;95956.47;;;6.32;65.03
28000;BME280;15328;50.860;10.562;2024-01-06T19:45:27;95949.94;;;6.21;64.99
28000;BME280;15328;50.860;10.562;2024-01-06T19:50:28;95966.78;;;6.13;64.95
28000;BME280;15328;50.860;10.562;2024-01-06T19:55:28;95968.16;;;5.96;64.51
28000;BME280;15328;50.860;10.562;2024-01-06T20:00:30;95977.06;;;5.82;65.16
28000;BME280;15328;50.860;10.562;2024-01-06T20:05:30;95971.94;;;5.74;65.61
28000;BME280;15328;50.860;10.562;2024-01-06T20:10:30;95978.59;;;5.63;66.26
28000;BME280;15328;50.860;10.562;2024-01-06T20:15:31;95978.41;;;5.58;65.84
28000;BME280;15328;50.860;10.562;2024-01-06T20:20:32;95971.66;;;5.49;66.44
28000;BME280;15328;50.860;10.562;2024-01-06T20:25:32;95977.31;;;5.46;66.17
28000;BME280;15328;50.860;10.562;2024-01-06T20:30:32;95971.41;;;5.37;66.40
28000;BME280;15328;50.860;10.562;2024-01-06T20:35:33;95979.09;;;5.32;66.91
28000;BME280;15328;50.860;10.562;2024-01-06T20:40:34;95973.66;;;5.40;66.95
28000;BME280;15328;50.860;10.562;2024-01-06T20:45:34;95981.72;;;5.25;66.85
28000;BME280;15328;50.860;10.562;2024-01-06T20:50:35;95983.28;;;5.20;66.69
28000;BME280;15328;50.860;10.562;2024-01-06T20:55:35;95986.00;;;4.99;66.96
28000;BME280;15328;50.860;10.562;2024-01-06T21:00:36;95986.31;;;4.82;67.35
28000;BME280;15328;50.860;10.562;2024-01-06T21:05:37;95992.69;;;4.67;67.56
28000;BME280;15328;50.860;10.562;2024-01-06T21:10:38;95992.56;;;4.53;68.29
28000;BME280;15328;50.860;10.562;2024-01-06T21:15:38;95995.53;;;4.44;67.84
28000;BME280;15328;50.860;10.562;2024-01-06T21:20:39;95996.94;;;4.40;68.44
28000;BME280;15328;50.860;10.562;2024-01-06T21:25:39;95997.47;;;4.35;68.54
28000;BME280;15328;50.860;10.562;2024-01-06T21:30:39;95996.63;;;4.28;68.81
28000;BME280;15328;50.860;10.562;2024-01-06T21:35:40;96000.56;;;4.17;68.83
28000;BME280;15328;50.860;10.562;2024-01-06T21:40:40;96007.41;;;4.12;68.93
28000;BME280;15328;50.860;10.562;2024-01-06T21:45:42;96008.31;;;4.04;69.98
28000;BME280;15328;50.860;10.562;2024-01-06T21:50:43;96026.13;;;4.02;69.98
28000;BME280;15328;50.860;10.562;2024-01-06T21:55:43;96030.81;;;4.07;69.96
28000;BME280;15328;50.860;10.562;2024-01-06T22:00:44;96032.16;;;3.96;69.56
28000;BME280;15328;50.860;10.562;2024-01-06T22:05:45;96036.91;;;3.86;69.83
28000;BME280;15328;50.860;10.562;2024-01-06T22:10:45;96045.31;;;3.81;69.95
28000;BME280;15328;50.860;10.562;2024-01-06T22:15:45;96036.63;;;3.81;70.40
28000;BME280;15328;50.860;10.562;2024-01-06T22:20:46;96047.69;;;3.91;70.72
28000;BME280;15328;50.860;10.562;2024-01-06T22:25:46;96057.47;;;3.97;69.93
28000;BME280;15328;50.860;10.562;2024-01-06T22:30:46;96048.31;;;3.93;69.50
28000;BME280;15328;50.860;10.562;2024-01-06T22:35:47;96060.28;;;3.81;69.66
28000;BME280;15328;50.860;10.562;2024-01-06T22:40:47;96060.22;;;3.74;70.17
28000;BME280;15328;50.860;10.562;2024-01-06T22:45:47;96068.94;;;3.75;70.27
28000;BME280;15328;50.860;10.562;2024-01-06T22:50:48;96067.56;;;3.79;70.49
28000;BME280;15328;50.860;10.562;2024-01-06T22:55:48;96074.00;;;3.76;69.86
28000;BME280;15328;50.860;10.562;2024-01-06T23:00:48;96069.69;;;3.68;69.53
28000;BME280;15328;50.860;10.562;2024-01-06T23:05:49;96074.69;;;3.63;70.17
28000;BME280;15328;50.860;10.562;2024-01-06T23:10:49;96075.31;;;3.65;70.04
28000;BME280;15328;50.860;10.562;2024-01-06T23:15:51;96086.91;;;3.71;69.95
28000;BME280;15328;50.860;10.562;2024-01-06T23:20:53;96093.53;;;3.67;70.20
28000;BME280;15328;50.860;10.562;2024-01-06T23:25:53;96099.97;;;3.64;70.02
28000;BME280;15328;50.860;10.562;2024-01-06T23:30:54;96112.69;;;3.61;69.79
28000;BME280;15328;50.860;10.562;2024-01-06T23:35:54;96115.19;;;3.54;69.79
28000;BME280;15328;50.860;10.562;2024-01-06T23:40:54;96115.38;;;3.53;69.65
28000;BME280;15328;50.860;10.562;2024-01-06T23:45:57;96120.66;;;3.53;70.10
28000;BME280;15328;50.860;10.562;2024-01-06T23:50:57;96122.66;;;3.51;69.98
28000;BME280;15328;50.860;10.562;2024-01-06T23:55:58;96128.53;;;3.53;70.12
